sensor_id;sensor_type;location;lat;lon;timestamp;P1;durP1;ratioP1;P2;durP2;ratioP2
78053;SDS011;67726;45.636;11.752;2023-06-26T00:02:20;11.30;;;6.23;;
78053;SDS011;67726;45.636;11.752;2023-06-26T00:04:45;12.15;;;6.43;;
78053;SDS011;67726;45.636;11.752;2023-06-26T00:07:11;11.30;;;6.07;;
78053;SDS011;67726;45.636;11.752;2023-06-26T00:09:37;11.73;;;6.40;;
78053;SDS011;67726;45.636;11.752;2023-06-26T00:12:02;14.77;;;6.67;;
78053;SDS011;67726;45.636;11.752;2023-06-26T00:14:28;12.93;;;6.88;;
78053;SDS011;67726;45.636;11.752;2023-06-26T00:16:54;13.27;;;6.50;;
78053;SDS011;67726;45.636;11.752;2023-06-26T00:19:20;10.17;;;5.80;;
78053;SDS011;67726;45.636;11.752;2023-06-26T00:21:45;14.65;;;6.47;;
78053;SDS011;67726;45.636;11.752;2023-06-26T00:24:16;12.73;;;7.23;;
78053;SDS011;67726;45.636;11.752;2023-06-26T00:26:42;11.68;;;6.15;;
78053;SDS011;67726;45.636;11.752;2023-06-26T00:29:10;15.23;;;6.78;;
78053;SDS011;67726;45.636;11.752;2023-06-26T00:31:36;12.27;;;6.80;;
78053;SDS011;67726;45.636;11.752;2023-06-26T00:34:03;10.85;;;6.57;;
78053;SDS011;67726;45.636;11.752;2023-06-26T00:36:28;12.98;;;7.05;;
78053;SDS011;67726;45.636;11.752;2023-06-26T00:38:54;16.50;;;6.97;;
78053;SDS011;67726;45.636;11.752;2023-06-26T00:41:20;10.70;;;6.38;;
78053;SDS011;67726;45.636;11.752;2023-06-26T00:43:45;11.90;;;6.00;;
78053;SDS011;67726;45.636;11.752;2023-06-26T00:46:12;11.85;;;6.50;;
78053;SDS011;67726;45.636;11.752;2023-06-26T00:48:39;13.05;;;6.28;;
78053;SDS011;67726;45.636;11.752;2023-06-26T00:51:07;12.17;;;6.30;;
78053;SDS011;67726;45.636;11.752;2023-06-26T00:53:33;8.32;;;5.45;;
78053;SDS011;67726;45.636;11.752;2023-06-26T00:55:59;13.38;;;6.45;;
78053;SDS011;67726;45.636;11.752;2023-06-26T00:58:27;12.00;;;6.28;;
78053;SDS011;67726;45.636;11.752;2023-06-26T01:00:53;14.52;;;6.70;;
78053;SDS011;67726;45.636;11.752;2023-06-26T01:03:22;12.27;;;6.63;;
78053;SDS011;67726;45.636;11.752;2023-06-26T01:05:52;12.32;;;6.40;;
78053;SDS011;67726;45.636;11.752;2023-06-26T01:08:21;14.20;;;6.28;;
78053;SDS011;67726;45.636;11.752;2023-06-26T01:10:47;12.07;;;5.68;;
78053;SDS011;67726;45.636;11.752;2023-06-26T01:13:14;11.10;;;5.70;;
78053;SDS011;67726;45.636;11.752;2023-06-26T01:15:41;11.30;;;5.63;;
78053;SDS011;67726;45.636;11.752;2023-06-26T01:18:07;14.15;;;6.38;;
78053;SDS011;67726;45.636;11.752;2023-06-26T01:20:38;11.52;;;6.07;;
78053;SDS011;67726;45.636;11.752;2023-06-26T01:28:45;14.07;;;6.50;;
78053;SDS011;67726;45.636;11.752;2023-06-26T01:31:11;15.10;;;6.60;;
78053;SDS011;67726;45.636;11.752;2023-06-26T01:33:38;10.93;;;5.43;;
78053;SDS011;67726;45.636;11.752;2023-06-26T01:36:06;11.05;;;6.43;;
78053;SDS011;67726;45.636;11.752;2023-06-26T01:38:32;12.50;;;6.17;;
78053;SDS011;67726;45.636;11.752;2023-06-26T01:40:59;11.32;;;6.10;;
78053;SDS011;67726;45.636;11.752;2023-06-26T01:46:21;11.70;;;6.38;;
78053;SDS011;67726;45.636;11.752;2023-06-26T01:48:54;11.18;;;5.85;;
78053;SDS011;67726;45.636;11.752;2023-06-26T01:51:22;11.63;;;6.63;;
78053;SDS011;67726;45.636;11.752;2023-06-26T01:53:55;12.68;;;6.10;;
78053;SDS011;67726;45.636;11.752;2023-06-26T01:56:23;12.35;;;6.47;;
78053;SDS011;67726;45.636;11.752;2023-06-26T01:58:50;11.18;;;5.85;;
78053;SDS011;67726;45.636;11.752;2023-06-26T02:01:20;13.15;;;6.68;;
78053;SDS011;67726;45.636;11.752;2023-06-26T02:03:46;11.40;;;6.03;;
78053;SDS011;67726;45.636;11.752;2023-06-26T02:06:12;13.07;;;5.70;;
78053;SDS011;67726;45.636;11.752;2023-06-26T02:08:37;13.05;;;6.30;;
78053;SDS011;67726;45.636;11.752;2023-06-26T02:11:03;9.43;;;5.37;;
78053;SDS011;67726;45.636;11.752;2023-06-26T02:13:29;9.02;;;5.90;;
78053;SDS011;67726;45.636;11.752;2023-06-26T02:15:54;9.07;;;5.40;;
78053;SDS011;67726;45.636;11.752;2023-06-26T02:18:20;8.95;;;5.53;;
78053;SDS011;67726;45.636;11.752;2023-06-26T02:20:47;10.90;;;5.53;;
78053;SDS011;67726;45.636;11.752;2023-06-26T02:23:13;10.25;;;5.78;;
78053;SDS011;67726;45.636;11.752;2023-06-26T02:25:39;12.70;;;5.45;;
78053;SDS011;67726;45.636;11.752;2023-06-26T02:28:04;12.37;;;5.90;;
78053;SDS011;67726;45.636;11.752;2023-06-26T02:30:30;11.15;;;6.07;;
78053;SDS011;67726;45.636;11.752;2023-06-26T02:32:56;9.03;;;5.60;;
78053;SDS011;67726;45.636;11.752;2023-06-26T02:35:21;11.43;;;5.88;;
78053;SDS011;67726;45.636;11.752;2023-06-26T02:37:47;9.40;;;5.47;;
78053;SDS011;67726;45.636;11.752;2023-06-26T02:40:13;10.25;;;5.40;;
78053;SDS011;67726;45.636;11.752;2023-06-26T02:42:38;9.83;;;5.17;;
78053;SDS011;67726;45.636;11.752;2023-06-26T02:45:04;11.85;;;5.97;;
78053;SDS011;67726;45.636;11.752;2023-06-26T02:47:30;9.47;;;5.67;;
78053;SDS011;67726;45.636;11.752;2023-06-26T02:49:56;10.23;;;5.45;;
78053;SDS011;67726;45.636;11.752;2023-06-26T02:52:21;9.60;;;5.67;;
78053;SDS011;67726;45.636;11.752;2023-06-26T02:54:47;9.27;;;6.00;;
78053;SDS011;67726;45.636;11.752;2023-06-26T02:57:13;11.00;;;5.80;;
78053;SDS011;67726;45.636;11.752;2023-06-26T02:59:39;12.38;;;5.93;;
78053;SDS011;67726;45.636;11.752;2023-06-26T03:02:05;10.45;;;5.55;;
78053;SDS011;67726;45.636;11.752;2023-06-26T03:04:31;9.33;;;5.67;;
78053;SDS011;67726;45.636;11.752;2023-06-26T03:06:56;9.98;;;4.95;;
78053;SDS011;67726;45.636;11.752;2023-06-26T03:09:22;12.97;;;5.43;;
78053;SDS011;67726;45.636;11.752;2023-06-26T03:11:48;10.70;;;5.40;;
78053;SDS011;67726;45.636;11.752;2023-06-26T03:14:13;10.67;;;5.50;;
78053;SDS011;67726;45.636;11.752;2023-06-26T03:16:39;9.20;;;5.57;;
78053;SDS011;67726;45.636;11.752;2023-06-26T03:19:05;10.60;;;5.97;;
78053;SDS011;67726;45.636;11.752;2023-06-26T03:21:32;10.60;;;5.60;;
78053;SDS011;67726;45.636;11.752;2023-06-26T03:23:57;9.47;;;5.10;;
78053;SDS011;67726;45.636;11.752;2023-06-26T03:26:23;11.63;;;5.60;;
78053;SDS011;67726;45.636;11.752;2023-06-26T03:28:52;9.82;;;5.75;;
78053;SDS011;67726;45.636;11.752;2023-06-26T03:31:18;12.45;;;5.82;;
78053;SDS011;67726;45.636;11.752;2023-06-26T03:33:44;9.67;;;4.80;;
78053;SDS011;67726;45.636;11.752;2023-06-26T03:36:10;10.10;;;5.40;;
78053;SDS011;67726;45.636;11.752;2023-06-26T03:38:36;11.90;;;6.10;;
78053;SDS011;67726;45.636;11.752;2023-06-26T03:41:01;11.95;;;6.07;;
78053;SDS011;67726;45.636;11.752;2023-06-26T03:43:27;12.38;;;5.28;;
78053;SDS011;67726;45.636;11.752;2023-06-26T03:45:53;10.87;;;5.43;;
78053;SDS011;67726;45.636;11.752;2023-06-26T03:48:19;10.95;;;6.32;;
78053;SDS011;67726;45.636;11.752;2023-06-26T03:50:45;10.37;;;5.27;;
78053;SDS011;67726;45.636;11.752;2023-06-26T03:53:10;9.90;;;5.40;;
78053;SDS011;67726;45.636;11.752;2023-06-26T03:55:37;11.33;;;5.63;;
78053;SDS011;67726;45.636;11.752;2023-06-26T03:58:03;10.00;;;5.72;;
78053;SDS011;67726;45.636;11.752;2023-06-26T04:00:29;10.80;;;5.90;;
78053;SDS011;67726;45.636;11.752;2023-06-26T04:02:55;9.82;;;5.78;;
78053;SDS011;67726;45.636;11.752;2023-06-26T04:05:21;10.70;;;5.83;;
78053;SDS011;67726;45.636;11.752;2023-06-26T04:07:49;10.63;;;5.63;;
78053;SDS011;67726;45.636;11.752;2023-06-26T04:10:16;11.63;;;5.40;;
78053;SDS011;67726;45.636;11.752;2023-06-26T04:12:42;12.73;;;6.23;;
78053;SDS011;67726;45.636;11.752;2023-06-26T04:15:07;9.25;;;5.82;;
78053;SDS011;67726;45.636;11.752;2023-06-26T04:17:33;15.15;;;6.05;;
78053;SDS011;67726;45.636;11.752;2023-06-26T04:19:59;12.17;;;5.87;;
78053;SDS011;67726;45.636;11.752;2023-06-26T04:22:24;9.73;;;5.13;;
78053;SDS011;67726;45.636;11.752;2023-06-26T04:24:51;10.23;;;5.97;;
78053;SDS011;67726;45.636;11.752;2023-06-26T04:27:17;13.02;;;6.20;;
78053;SDS011;67726;45.636;11.752;2023-06-26T04:29:43;11.55;;;6.32;;
78053;SDS011;67726;45.636;11.752;2023-06-26T04:32:08;12.77;;;6.37;;
78053;SDS011;67726;45.636;11.752;2023-06-26T04:34:34;14.95;;;6.15;;
78053;SDS011;67726;45.636;11.752;2023-06-26T04:37:01;10.57;;;5.75;;
78053;SDS011;67726;45.636;11.752;2023-06-26T04:39:29;11.07;;;5.10;;
78053;SDS011;67726;45.636;11.752;2023-06-26T04:41:55;9.95;;;5.60;;
78053;SDS011;67726;45.636;11.752;2023-06-26T04:44:21;12.07;;;6.05;;
78053;SDS011;67726;45.636;11.752;2023-06-26T04:46:47;11.70;;;5.60;;
78053;SDS011;67726;45.636;11.752;2023-06-26T04:49:12;11.55;;;6.32;;
78053;SDS011;67726;45.636;11.752;2023-06-26T04:51:38;10.43;;;6.07;;
78053;SDS011;67726;45.636;11.752;2023-06-26T04:54:08;13.27;;;6.00;;
78053;SDS011;67726;45.636;11.752;2023-06-26T04:56:38;15.55;;;6.85;;
78053;SDS011;67726;45.636;11.752;2023-06-26T04:59:06;11.77;;;6.60;;
78053;SDS011;67726;45.636;11.752;2023-06-26T05:01:38;12.57;;;6.57;;
78053;SDS011;67726;45.636;11.752;2023-06-26T05:04:04;11.75;;;6.75;;
78053;SDS011;67726;45.636;11.752;2023-06-26T05:06:30;10.98;;;6.25;;
78053;SDS011;67726;45.636;11.752;2023-06-26T05:08:56;13.10;;;6.60;;
78053;SDS011;67726;45.636;11.752;2023-06-26T05:11:22;11.37;;;6.63;;
78053;SDS011;67726;45.636;11.752;2023-06-26T05:13:48;11.68;;;6.10;;
78053;SDS011;67726;45.636;11.752;2023-06-26T05:16:14;13.07;;;7.25;;
78053;SDS011;67726;45.636;11.752;2023-06-26T05:18:40;9.87;;;6.37;;
78053;SDS011;67726;45.636;11.752;2023-06-26T05:21:05;10.40;;;6.03;;
78053;SDS011;67726;45.636;11.752;2023-06-26T05:23:32;10.87;;;6.07;;
78053;SDS011;67726;45.636;11.752;2023-06-26T05:25:59;12.32;;;6.55;;
78053;SDS011;67726;45.636;11.752;2023-06-26T05:28:25;11.15;;;6.55;;
78053;SDS011;67726;45.636;11.752;2023-06-26T05:30:52;14.23;;;6.95;;
78053;SDS011;67726;45.636;11.752;2023-06-26T05:33:19;12.77;;;6.65;;
78053;SDS011;67726;45.636;11.752;2023-06-26T05:35:48;11.83;;;6.53;;
78053;SDS011;67726;45.636;11.752;2023-06-26T05:38:14;16.35;;;6.47;;
78053;SDS011;67726;45.636;11.752;2023-06-26T05:40:40;10.88;;;6.05;;
78053;SDS011;67726;45.636;11.752;2023-06-26T05:43:06;11.38;;;6.18;;
78053;SDS011;67726;45.636;11.752;2023-06-26T05:45:32;12.20;;;6.73;;
78053;SDS011;67726;45.636;11.752;2023-06-26T05:47:58;14.75;;;6.60;;
78053;SDS011;67726;45.636;11.752;2023-06-26T05:50:24;12.17;;;6.33;;
78053;SDS011;67726;45.636;11.752;2023-06-26T05:52:50;13.03;;;6.50;;
78053;SDS011;67726;45.636;11.752;2023-06-26T05:55:16;13.45;;;5.93;;
78053;SDS011;67726;45.636;11.752;2023-06-26T05:57:42;13.77;;;5.90;;
78053;SDS011;67726;45.636;11.752;2023-06-26T06:00:10;13.85;;;5.63;;
78053;SDS011;67726;45.636;11.752;2023-06-26T06:02:37;14.77;;;5.85;;
78053;SDS011;67726;45.636;11.752;2023-06-26T06:05:04;12.67;;;5.70;;
78053;SDS011;67726;45.636;11.752;2023-06-26T06:07:31;13.85;;;5.90;;
78053;SDS011;67726;45.636;11.752;2023-06-26T06:09:57;10.73;;;5.40;;
78053;SDS011;67726;45.636;11.752;2023-06-26T06:12:23;12.70;;;5.45;;
78053;SDS011;67726;45.636;11.752;2023-06-26T06:14:49;11.77;;;5.47;;
78053;SDS011;67726;45.636;11.752;2023-06-26T06:17:14;12.20;;;5.20;;
78053;SDS011;67726;45.636;11.752;2023-06-26T06:19:40;11.23;;;5.30;;
78053;SDS011;67726;45.636;11.752;2023-06-26T06:22:05;10.63;;;5.83;;
78053;SDS011;67726;45.636;11.752;2023-06-26T06:24:31;8.90;;;4.90;;
78053;SDS011;67726;45.636;11.752;2023-06-26T06:26:57;10.03;;;5.63;;
78053;SDS011;67726;45.636;11.752;2023-06-26T06:29:22;11.25;;;5.47;;
78053;SDS011;67726;45.636;11.752;2023-06-26T06:31:48;11.83;;;6.00;;
78053;SDS011;67726;45.636;11.752;2023-06-26T06:34:13;9.83;;;5.53;;
78053;SDS011;67726;45.636;11.752;2023-06-26T06:36:39;11.65;;;5.28;;
78053;SDS011;67726;45.636;11.752;2023-06-26T06:39:06;12.00;;;5.90;;
78053;SDS011;67726;45.636;11.752;2023-06-26T06:41:31;13.10;;;6.45;;
78053;SDS011;67726;45.636;11.752;2023-06-26T06:43:57;11.02;;;5.65;;
78053;SDS011;67726;45.636;11.752;2023-06-26T06:46:23;11.57;;;6.30;;
78053;SDS011;67726;45.636;11.752;2023-06-26T06:48:48;11.13;;;5.97;;
78053;SDS011;67726;45.636;11.752;2023-06-26T06:51:14;9.68;;;5.93;;
78053;SDS011;67726;45.636;11.752;2023-06-26T06:53:39;9.70;;;5.70;;
78053;SDS011;67726;45.636;11.752;2023-06-26T06:56:05;12.10;;;6.10;;
78053;SDS011;67726;45.636;11.752;2023-06-26T06:58:31;10.40;;;5.97;;
78053;SDS011;67726;45.636;11.752;2023-06-26T07:00:58;11.48;;;6.05;;
78053;SDS011;67726;45.636;11.752;2023-06-26T07:03:24;10.13;;;6.22;;
78053;SDS011;67726;45.636;11.752;2023-06-26T07:05:50;8.63;;;5.70;;
78053;SDS011;67726;45.636;11.752;2023-06-26T07:08:16;9.80;;;5.88;;
78053;SDS011;67726;45.636;11.752;2023-06-26T07:10:41;11.20;;;6.00;;
78053;SDS011;67726;45.636;11.752;2023-06-26T07:13:07;9.90;;;6.15;;
78053;SDS011;67726;45.636;11.752;2023-06-26T07:15:33;10.80;;;6.40;;
78053;SDS011;67726;45.636;11.752;2023-06-26T07:17:59;11.45;;;6.05;;
78053;SDS011;67726;45.636;11.752;2023-06-26T07:20:24;11.30;;;7.23;;
78053;SDS011;67726;45.636;11.752;2023-06-26T07:22:50;9.68;;;6.00;;
78053;SDS011;67726;45.636;11.752;2023-06-26T07:25:16;9.98;;;5.70;;
78053;SDS011;67726;45.636;11.752;2023-06-26T07:27:42;11.07;;;5.90;;
78053;SDS011;67726;45.636;11.752;2023-06-26T07:30:08;11.57;;;6.22;;
78053;SDS011;67726;45.636;11.752;2023-06-26T07:32:34;8.68;;;5.57;;
78053;SDS011;67726;45.636;11.752;2023-06-26T07:35:00;10.57;;;6.33;;
78053;SDS011;67726;45.636;11.752;2023-06-26T07:37:26;11.52;;;5.78;;
78053;SDS011;67726;45.636;11.752;2023-06-26T07:39:52;11.15;;;5.75;;
78053;SDS011;67726;45.636;11.752;2023-06-26T07:42:17;11.73;;;6.20;;
78053;SDS011;67726;45.636;11.752;2023-06-26T07:44:43;10.57;;;6.10;;
78053;SDS011;67726;45.636;11.752;2023-06-26T07:47:09;10.10;;;6.00;;
78053;SDS011;67726;45.636;11.752;2023-06-26T07:49:35;10.77;;;6.40;;
78053;SDS011;67726;45.636;11.752;2023-06-26T07:52:01;8.77;;;5.90;;
78053;SDS011;67726;45.636;11.752;2023-06-26T07:54:27;11.07;;;6.33;;
78053;SDS011;67726;45.636;11.752;2023-06-26T07:56:54;12.18;;;6.47;;
78053;SDS011;67726;45.636;11.752;2023-06-26T07:59:24;10.05;;;5.82;;
78053;SDS011;67726;45.636;11.752;2023-06-26T08:01:51;9.27;;;5.97;;
78053;SDS011;67726;45.636;11.752;2023-06-26T08:04:19;9.95;;;5.88;;
78053;SDS011;67726;45.636;11.752;2023-06-26T08:06:47;8.90;;;5.70;;
78053;SDS011;67726;45.636;11.752;2023-06-26T08:09:13;10.48;;;5.65;;
78053;SDS011;67726;45.636;11.752;2023-06-26T08:11:39;10.07;;;5.60;;
78053;SDS011;67726;45.636;11.752;2023-06-26T08:14:05;10.50;;;6.25;;
78053;SDS011;67726;45.636;11.752;2023-06-26T08:16:30;10.40;;;5.60;;
78053;SDS011;67726;45.636;11.752;2023-06-26T08:18:56;9.18;;;5.78;;
78053;SDS011;67726;45.636;11.752;2023-06-26T08:21:21;10.97;;;5.70;;
78053;SDS011;67726;45.636;11.752;2023-06-26T08:23:47;11.03;;;5.40;;
78053;SDS011;67726;45.636;11.752;2023-06-26T08:26:13;12.70;;;5.10;;
78053;SDS011;67726;45.636;11.752;2023-06-26T08:28:39;10.43;;;5.40;;
78053;SDS011;67726;45.636;11.752;2023-06-26T08:31:04;12.70;;;5.63;;
78053;SDS011;67726;45.636;11.752;2023-06-26T08:33:30;10.80;;;5.80;;
78053;SDS011;67726;45.636;11.752;2023-06-26T08:35:56;9.77;;;6.10;;
78053;SDS011;67726;45.636;11.752;2023-06-26T08:38:21;9.60;;;5.83;;
78053;SDS011;67726;45.636;11.752;2023-06-26T08:40:47;14.13;;;5.90;;
78053;SDS011;67726;45.636;11.752;2023-06-26T08:43:13;11.27;;;5.72;;
78053;SDS011;67726;45.636;11.752;2023-06-26T08:45:39;11.37;;;6.03;;
78053;SDS011;67726;45.636;11.752;2023-06-26T08:48:07;10.05;;;5.85;;
78053;SDS011;67726;45.636;11.752;2023-06-26T08:50:34;10.73;;;5.80;;
78053;SDS011;67726;45.636;11.752;2023-06-26T08:53:04;9.20;;;6.00;;
78053;SDS011;67726;45.636;11.752;2023-06-26T08:55:52;12.85;;;5.65;;
78053;SDS011;67726;45.636;11.752;2023-06-26T08:58:19;10.63;;;5.38;;
78053;SDS011;67726;45.636;11.752;2023-06-26T09:00:45;9.70;;;5.80;;
78053;SDS011;67726;45.636;11.752;2023-06-26T09:03:11;12.20;;;5.30;;
78053;SDS011;67726;45.636;11.752;2023-06-26T09:05:38;11.05;;;5.88;;
78053;SDS011;67726;45.636;11.752;2023-06-26T09:08:04;11.13;;;6.15;;
78053;SDS011;67726;45.636;11.752;2023-06-26T09:10:30;9.63;;;5.60;;
78053;SDS011;67726;45.636;11.752;2023-06-26T09:12:56;11.40;;;5.93;;
78053;SDS011;67726;45.636;11.752;2023-06-26T09:15:23;9.95;;;5.13;;
78053;SDS011;67726;45.636;11.752;2023-06-26T09:17:49;11.80;;;5.45;;
78053;SDS011;67726;45.636;11.752;2023-06-26T09:20:15;8.60;;;5.83;;
78053;SDS011;67726;45.636;11.752;2023-06-26T09:22:43;12.18;;;5.22;;
78053;SDS011;67726;45.636;11.752;2023-06-26T09:25:13;10.88;;;5.22;;
78053;SDS011;67726;45.636;11.752;2023-06-26T09:27:39;10.88;;;5.55;;
78053;SDS011;67726;45.636;11.752;2023-06-26T09:30:05;9.40;;;5.10;;
78053;SDS011;67726;45.636;11.752;2023-06-26T09:32:35;11.60;;;5.43;;
78053;SDS011;67726;45.636;11.752;2023-06-26T09:35:04;8.93;;;5.03;;
78053;SDS011;67726;45.636;11.752;2023-06-26T09:37:29;9.35;;;4.53;;
78053;SDS011;67726;45.636;11.752;2023-06-26T09:39:55;12.03;;;5.17;;
78053;SDS011;67726;45.636;11.752;2023-06-26T09:42:21;9.02;;;5.32;;
78053;SDS011;67726;45.636;11.752;2023-06-26T09:44:48;9.60;;;5.30;;
78053;SDS011;67726;45.636;11.752;2023-06-26T09:47:18;10.30;;;5.40;;
78053;SDS011;67726;45.636;11.752;2023-06-26T09:49:44;11.73;;;5.28;;
78053;SDS011;67726;45.636;11.752;2023-06-26T09:52:14;10.40;;;5.27;;
78053;SDS011;67726;45.636;11.752;2023-06-26T09:54:41;8.77;;;4.65;;
78053;SDS011;67726;45.636;11.752;2023-06-26T09:57:09;10.27;;;4.50;;
78053;SDS011;67726;45.636;11.752;2023-06-26T09:59:35;7.63;;;4.35;;
78053;SDS011;67726;45.636;11.752;2023-06-26T10:02:01;11.27;;;5.00;;
78053;SDS011;67726;45.636;11.752;2023-06-26T10:04:27;9.40;;;5.13;;
78053;SDS011;67726;45.636;11.752;2023-06-26T10:06:54;10.53;;;5.30;;
78053;SDS011;67726;45.636;11.752;2023-06-26T10:09:22;11.17;;;5.73;;
78053;SDS011;67726;45.636;11.752;2023-06-26T10:11:54;10.25;;;5.80;;
78053;SDS011;67726;45.636;11.752;2023-06-26T10:14:31;10.93;;;5.65;;
78053;SDS011;67726;45.636;11.752;2023-06-26T10:17:07;9.18;;;5.43;;
78053;SDS011;67726;45.636;11.752;2023-06-26T10:19:35;11.13;;;5.25;;
78053;SDS011;67726;45.636;11.752;2023-06-26T10:22:02;8.47;;;4.50;;
78053;SDS011;67726;45.636;11.752;2023-06-26T10:24:29;9.95;;;4.95;;
78053;SDS011;67726;45.636;11.752;2023-06-26T10:27:08;7.75;;;4.82;;
78053;SDS011;67726;45.636;11.752;2023-06-26T10:29:36;8.25;;;4.35;;
78053;SDS011;67726;45.636;11.752;2023-06-26T10:32:02;7.45;;;4.30;;
78053;SDS011;67726;45.636;11.752;2023-06-26T10:34:29;9.57;;;4.60;;
78053;SDS011;67726;45.636;11.752;2023-06-26T10:37:02;12.75;;;4.60;;
78053;SDS011;67726;45.636;11.752;2023-06-26T10:39:37;9.98;;;4.10;;
78053;SDS011;67726;45.636;11.752;2023-06-26T10:42:10;7.68;;;4.10;;
78053;SDS011;67726;45.636;11.752;2023-06-26T10:44:40;7.30;;;4.28;;
78053;SDS011;67726;45.636;11.752;2023-06-26T10:47:09;10.07;;;4.13;;
78053;SDS011;67726;45.636;11.752;2023-06-26T10:49:37;10.52;;;4.80;;
78053;SDS011;67726;45.636;11.752;2023-06-26T10:52:07;9.60;;;4.65;;
78053;SDS011;67726;45.636;11.752;2023-06-26T10:54:33;9.13;;;5.00;;
78053;SDS011;67726;45.636;11.752;2023-06-26T10:57:01;10.48;;;5.18;;
78053;SDS011;67726;45.636;11.752;2023-06-26T10:59:29;8.30;;;5.10;;
78053;SDS011;67726;45.636;11.752;2023-06-26T11:02:06;10.23;;;5.22;;
78053;SDS011;67726;45.636;11.752;2023-06-26T11:04:45;10.00;;;5.55;;
78053;SDS011;67726;45.636;11.752;2023-06-26T11:07:21;10.52;;;5.05;;
78053;SDS011;67726;45.636;11.752;2023-06-26T11:10:01;17.13;;;5.97;;
78053;SDS011;67726;45.636;11.752;2023-06-26T11:12:42;9.63;;;5.57;;
78053;SDS011;67726;45.636;11.752;2023-06-26T11:15:13;9.75;;;5.90;;
78053;SDS011;67726;45.636;11.752;2023-06-26T11:17:40;10.32;;;5.95;;
78053;SDS011;67726;45.636;11.752;2023-06-26T11:20:07;10.43;;;5.40;;
78053;SDS011;67726;45.636;11.752;2023-06-26T11:22:38;9.30;;;5.40;;
78053;SDS011;67726;45.636;11.752;2023-06-26T11:25:05;10.70;;;5.90;;
78053;SDS011;67726;45.636;11.752;2023-06-26T11:27:42;11.25;;;5.50;;
78053;SDS011;67726;45.636;11.752;2023-06-26T11:30:09;8.88;;;5.13;;
78053;SDS011;67726;45.636;11.752;2023-06-26T11:32:36;11.60;;;5.40;;
78053;SDS011;67726;45.636;11.752;2023-06-26T11:35:03;10.38;;;5.25;;
78053;SDS011;67726;45.636;11.752;2023-06-26T11:37:30;8.50;;;5.00;;
78053;SDS011;67726;45.636;11.752;2023-06-26T11:39:56;9.13;;;5.05;;
78053;SDS011;67726;45.636;11.752;2023-06-26T11:42:23;11.57;;;6.20;;
78053;SDS011;67726;45.636;11.752;2023-06-26T11:44:50;12.85;;;5.25;;
78053;SDS011;67726;45.636;11.752;2023-06-26T11:47:19;10.13;;;5.87;;
78053;SDS011;67726;45.636;11.752;2023-06-26T11:49:46;13.73;;;6.47;;
78053;SDS011;67726;45.636;11.752;2023-06-26T11:52:14;10.50;;;5.47;;
78053;SDS011;67726;45.636;11.752;2023-06-26T11:54:41;9.27;;;5.80;;
78053;SDS011;67726;45.636;11.752;2023-06-26T11:57:07;10.13;;;5.00;;
78053;SDS011;67726;45.636;11.752;2023-06-26T11:59:37;12.80;;;5.70;;
78053;SDS011;67726;45.636;11.752;2023-06-26T12:02:05;10.90;;;5.50;;
78053;SDS011;67726;45.636;11.752;2023-06-26T12:04:35;9.75;;;5.95;;
78053;SDS011;67726;45.636;11.752;2023-06-26T12:07:03;9.95;;;5.78;;
78053;SDS011;67726;45.636;11.752;2023-06-26T12:09:32;11.05;;;6.35;;
78053;SDS011;67726;45.636;11.752;2023-06-26T12:12:01;11.40;;;5.37;;
78053;SDS011;67726;45.636;11.752;2023-06-26T12:14:28;10.40;;;5.45;;
78053;SDS011;67726;45.636;11.752;2023-06-26T12:16:55;13.50;;;5.63;;
78053;SDS011;67726;45.636;11.752;2023-06-26T12:19:28;10.23;;;6.20;;
78053;SDS011;67726;45.636;11.752;2023-06-26T12:21:54;9.35;;;5.30;;
78053;SDS011;67726;45.636;11.752;2023-06-26T12:24:22;10.37;;;5.27;;
78053;SDS011;67726;45.636;11.752;2023-06-26T12:26:52;10.35;;;5.10;;
78053;SDS011;67726;45.636;11.752;2023-06-26T12:29:32;10.18;;;5.75;;
78053;SDS011;67726;45.636;11.752;2023-06-26T12:31:59;11.13;;;5.32;;
78053;SDS011;67726;45.636;11.752;2023-06-26T12:34:33;9.10;;;5.55;;
78053;SDS011;67726;45.636;11.752;2023-06-26T12:37:00;10.70;;;5.80;;
78053;SDS011;67726;45.636;11.752;2023-06-26T12:39:27;9.05;;;5.70;;
78053;SDS011;67726;45.636;11.752;2023-06-26T12:44:25;10.75;;;5.25;;
78053;SDS011;67726;45.636;11.752;2023-06-26T12:46:57;11.33;;;5.70;;
78053;SDS011;67726;45.636;11.752;2023-06-26T12:52:00;9.98;;;5.30;;
78053;SDS011;67726;45.636;11.752;2023-06-26T12:54:28;9.95;;;5.07;;
78053;SDS011;67726;45.636;11.752;2023-06-26T12:56:54;11.20;;;5.90;;
78053;SDS011;67726;45.636;11.752;2023-06-26T12:59:23;9.03;;;5.40;;
78053;SDS011;67726;45.636;11.752;2023-06-26T13:01:48;9.45;;;5.30;;
78053;SDS011;67726;45.636;11.752;2023-06-26T13:04:14;12.50;;;5.60;;
78053;SDS011;67726;45.636;11.752;2023-06-26T13:06:40;10.90;;;5.70;;
78053;SDS011;67726;45.636;11.752;2023-06-26T13:09:06;10.10;;;5.73;;
78053;SDS011;67726;45.636;11.752;2023-06-26T13:11:32;10.90;;;5.75;;
78053;SDS011;67726;45.636;11.752;2023-06-26T13:13:58;11.20;;;5.50;;
78053;SDS011;67726;45.636;11.752;2023-06-26T13:16:24;10.23;;;5.63;;
78053;SDS011;67726;45.636;11.752;2023-06-26T13:18:50;8.30;;;5.38;;
78053;SDS011;67726;45.636;11.752;2023-06-26T13:21:16;8.90;;;5.63;;
78053;SDS011;67726;45.636;11.752;2023-06-26T13:23:43;10.13;;;5.45;;
78053;SDS011;67726;45.636;11.752;2023-06-26T13:26:09;8.75;;;5.35;;
78053;SDS011;67726;45.636;11.752;2023-06-26T13:28:35;10.25;;;5.55;;
78053;SDS011;67726;45.636;11.752;2023-06-26T13:31:02;10.18;;;5.40;;
78053;SDS011;67726;45.636;11.752;2023-06-26T13:33:28;9.87;;;5.00;;
78053;SDS011;67726;45.636;11.752;2023-06-26T13:35:53;9.15;;;5.22;;
78053;SDS011;67726;45.636;11.752;2023-06-26T13:38:22;9.15;;;5.22;;
78053;SDS011;67726;45.636;11.752;2023-06-26T13:40:54;9.40;;;5.07;;
78053;SDS011;67726;45.636;11.752;2023-06-26T13:43:22;9.20;;;4.95;;
78053;SDS011;67726;45.636;11.752;2023-06-26T13:45:48;8.13;;;5.13;;
78053;SDS011;67726;45.636;11.752;2023-06-26T13:48:14;12.80;;;5.43;;
78053;SDS011;67726;45.636;11.752;2023-06-26T13:50:41;10.65;;;5.57;;
78053;SDS011;67726;45.636;11.752;2023-06-26T13:53:06;9.83;;;5.03;;
78053;SDS011;67726;45.636;11.752;2023-06-26T13:55:34;9.85;;;5.40;;
78053;SDS011;67726;45.636;11.752;2023-06-26T13:57:59;7.75;;;5.03;;
78053;SDS011;67726;45.636;11.752;2023-06-26T14:00:29;11.10;;;5.45;;
78053;SDS011;67726;45.636;11.752;2023-06-26T14:02:55;10.60;;;5.27;;
78053;SDS011;67726;45.636;11.752;2023-06-26T14:05:21;9.52;;;5.00;;
78053;SDS011;67726;45.636;11.752;2023-06-26T14:07:47;8.05;;;4.82;;
78053;SDS011;67726;45.636;11.752;2023-06-26T14:10:13;9.60;;;5.30;;
78053;SDS011;67726;45.636;11.752;2023-06-26T14:12:40;11.97;;;5.10;;
78053;SDS011;67726;45.636;11.752;2023-06-26T14:15:06;9.52;;;5.10;;
78053;SDS011;67726;45.636;11.752;2023-06-26T14:17:32;12.02;;;5.30;;
78053;SDS011;67726;45.636;11.752;2023-06-26T14:19:58;9.63;;;5.43;;
78053;SDS011;67726;45.636;11.752;2023-06-26T14:22:24;8.52;;;5.40;;
78053;SDS011;67726;45.636;11.752;2023-06-26T14:24:50;10.70;;;5.60;;
78053;SDS011;67726;45.636;11.752;2023-06-26T14:27:15;11.43;;;5.30;;
78053;SDS011;67726;45.636;11.752;2023-06-26T14:29:41;9.35;;;4.70;;
78053;SDS011;67726;45.636;11.752;2023-06-26T14:32:07;11.13;;;5.50;;
78053;SDS011;67726;45.636;11.752;2023-06-26T14:34:33;10.25;;;5.20;;
78053;SDS011;67726;45.636;11.752;2023-06-26T14:36:58;11.47;;;5.37;;
78053;SDS011;67726;45.636;11.752;2023-06-26T14:39:24;9.85;;;5.10;;